キエフ/ボリースピリ の空港の天気 - METARとTAF

ボリースピリ国際空港(キエフ) ( UKBB / KBP ) - ウクライナ ボリスピリ (キエフ近郊)
飛行場実況気象(Metar)
観測時間10/19 02:30 EEST (10/18 23:30 UTC)
風向・風速東南東 1m/s
視程7000m
天気現象
なし
気温5℃
湿度100%
気圧1019hPa
METARUKBB 182330Z 11001MPS 7000 NSC 05/05 Q1019 R88/D NOSIG
過去の天気等 Google飛行場航空写真 Wunderground天気予報

過去48時間のMETAR

飛行場予報(TAF)
発表時間: 10/19 02:00 EEST (10/18 23:00 UTC)
予報対象時間: 19日3時 EEST ~ 20日3時 EEST
風向・風速不定 1m/s
視程5000m
天気現象もや
なし
19日3時 EEST ~ 19日9時 EEST に一時的に
視程400m
天気現象
全天を覆う雲 鉛直視程 60m
19日9時 EEST ~ 19日11時 EEST に徐々に
風向・風速南 3m/s 瞬間風速 8m/s
視程10km以上
天気現象運行に影響にある天気現象が終了
全天の4割程度の雲 雲底高度 1220m
19日21時 EEST ~ 20日3時 EEST に一時的に
視程2000m
天気現象もや
全天の4割程度の雲 雲底高度 180m
TAF UKBB 182300Z 1900/1924 VRB01MPS 5000 BR NSC TX22/1912Z TN03/1904Z
TEMPO 1900/1906 0400 FG VV002
BECMG 1906/1908 18003G08MPS 9999 NSW SCT040
TEMPO 1918/1924 2000 BR SCT006